createdAt,value
2022-10-09T00:01:24.300Z,73.06
2022-10-09T00:03:54.655Z,72.87
2022-10-09T00:06:24.673Z,73.39
2022-10-09T00:08:53.735Z,73.36
2022-10-09T00:11:23.903Z,73.36
2022-10-09T00:13:52.988Z,73.97
2022-10-09T00:16:23.636Z,73.37
2022-10-09T00:18:52.610Z,73.56
2022-10-09T00:21:26.039Z,73.98
2022-10-09T00:23:56.132Z,73.19
2022-10-09T00:26:25.018Z,73.17
2022-10-09T00:28:54.093Z,72.80
2022-10-09T00:31:22.954Z,72.90
2022-10-09T00:33:51.285Z,72.49
2022-10-09T00:36:24.271Z,73.28
2022-10-09T00:38:54.597Z,75.21
2022-10-09T00:41:25.069Z,75.21
2022-10-09T00:43:56.894Z,74.80
2022-10-09T00:46:33.817Z,74.30
2022-10-09T00:49:05.241Z,74.75
2022-10-09T00:51:34.487Z,74.83
2022-10-09T00:54:05.092Z,74.31
2022-10-09T00:56:34.553Z,73.76
2022-10-09T00:59:03.650Z,73.34
2022-10-09T01:01:31.866Z,73.44
2022-10-09T01:04:00.408Z,72.77
2022-10-09T01:06:35.136Z,72.93
2022-10-09T01:09:06.691Z,72.89
2022-10-09T01:11:39.492Z,72.99
2022-10-09T01:14:13.674Z,72.70
2022-10-09T01:16:45.148Z,72.79
2022-10-09T01:19:22.635Z,72.02
2022-10-09T01:22:10.062Z,73.26
2022-10-09T01:24:39.975Z,73.40
2022-10-09T01:27:38.153Z,75.36
2022-10-09T01:30:08.772Z,74.89
2022-10-09T01:32:40.033Z,75.12
2022-10-09T01:35:09.334Z,73.56
2022-10-09T01:37:39.559Z,73.43
2022-10-09T01:40:09.063Z,73.07
2022-10-09T01:42:37.311Z,72.64
2022-10-09T01:45:05.735Z,71.92
2022-10-09T01:47:34.510Z,72.94
2022-10-09T01:50:07.803Z,72.80
2022-10-09T01:52:42.510Z,72.89
2022-10-09T01:55:49.721Z,74.07
2022-10-09T01:58:20.660Z,73.36
2022-10-09T02:01:07.142Z,73.67
2022-10-09T02:03:36.477Z,74.96
2022-10-09T02:06:06.545Z,74.90
2022-10-09T02:08:37.406Z,74.77
2022-10-09T02:11:06.931Z,74.91
2022-10-09T02:13:35.926Z,73.90
2022-10-09T02:16:10.937Z,73.57
2022-10-09T02:18:45.665Z,73.73
2022-10-09T02:21:16.628Z,73.49
2022-10-09T02:23:46.508Z,73.10
2022-10-09T02:26:14.920Z,72.96
2022-10-09T02:28:45.973Z,73.94
2022-10-09T02:31:15.424Z,74.08
2022-10-09T02:33:43.950Z,73.90
2022-10-09T02:36:12.637Z,73.86
2022-10-09T02:38:40.915Z,73.73
2022-10-09T02:41:09.398Z,74.32
2022-10-09T02:43:37.880Z,73.88
2022-10-09T02:46:06.395Z,73.88
2022-10-09T02:48:34.557Z,75.08
2022-10-09T02:51:03.221Z,75.53
2022-10-09T02:53:31.603Z,76.55
2022-10-09T02:55:59.774Z,76.39
2022-10-09T02:58:30.356Z,77.83
2022-10-09T03:00:58.890Z,76.24
2022-10-09T03:03:27.066Z,75.60
2022-10-09T03:06:03.021Z,75.55
2022-10-09T03:08:31.525Z,75.02
2022-10-09T03:10:59.781Z,76.06
2022-10-09T03:13:28.467Z,75.76
2022-10-09T03:16:02.663Z,75.81
2022-10-09T03:18:31.876Z,75.66
2022-10-09T03:21:00.261Z,75.93
2022-10-09T03:23:28.439Z,75.94
2022-10-09T03:26:01.092Z,76.06
2022-10-09T03:28:29.948Z,76.61
2022-10-09T03:30:58.205Z,76.43
2022-10-09T03:33:26.812Z,76.72
2022-10-09T03:35:55.147Z,76.65
2022-10-09T03:38:23.525Z,76.53
2022-10-09T03:40:52.006Z,76.41
2022-10-09T03:43:20.902Z,76.14
2022-10-09T03:45:49.176Z,75.39
2022-10-09T03:48:17.658Z,75.43
2022-10-09T03:50:46.447Z,74.86
2022-10-09T03:53:15.031Z,74.58
2022-10-09T03:55:44.025Z,74.70
2022-10-09T03:58:12.485Z,74.05
2022-10-09T04:00:40.746Z,74.35
2022-10-09T04:03:09.265Z,75.03
2022-10-09T04:05:39.040Z,75.52
2022-10-09T04:08:07.458Z,75.98
2022-10-09T04:10:36.046Z,76.07
2022-10-09T04:13:04.528Z,76.37
2022-10-09T04:15:32.903Z,76.69
2022-10-09T04:18:01.180Z,76.28
2022-10-09T04:20:29.616Z,75.72
2022-10-09T04:22:58.248Z,76.14
2022-10-09T04:25:26.628Z,75.78
2022-10-09T04:27:55.109Z,75.60
2022-10-09T04:30:23.696Z,76.77
2022-10-09T04:32:52.062Z,77.65
2022-10-09T04:35:20.759Z,77.53
2022-10-09T04:37:49.178Z,76.66
2022-10-09T04:40:17.620Z,76.09
2022-10-09T04:42:46.399Z,76.07
2022-10-09T04:45:15.094Z,76.45
2022-10-09T04:47:43.681Z,76.39
2022-10-09T04:50:12.263Z,76.25
2022-10-09T04:52:58.872Z,76.93
2022-10-09T04:55:27.427Z,77.71
2022-10-09T04:57:55.833Z,79.41
2022-10-09T05:00:24.423Z,78.07
2022-10-09T05:02:52.799Z,79.20
2022-10-09T05:05:21.179Z,79.55
2022-10-09T05:07:49.761Z,77.12
2022-10-09T05:10:18.242Z,76.34
2022-10-09T05:12:46.677Z,76.49
2022-10-09T05:15:15.412Z,75.83
2022-10-09T05:17:43.704Z,75.37
2022-10-09T05:20:12.173Z,75.06
2022-10-09T05:22:40.653Z,74.67
2022-10-09T05:25:09.341Z,74.48
2022-10-09T05:27:37.682Z,74.36
2022-10-09T05:30:06.816Z,73.79
2022-10-09T05:32:35.310Z,73.12
2022-10-09T05:35:04.510Z,72.67
2022-10-09T05:37:32.979Z,72.34
2022-10-09T05:40:01.638Z,71.97
2022-10-09T05:42:29.841Z,71.75
2022-10-09T05:44:58.345Z,71.97
2022-10-09T05:47:26.707Z,71.66
2022-10-09T05:49:55.083Z,71.79
2022-10-09T05:52:23.533Z,71.88
2022-10-09T05:54:51.841Z,71.48
2022-10-09T05:57:20.529Z,71.36
2022-10-09T05:59:48.909Z,71.53
2022-10-09T06:02:17.225Z,70.64
2022-10-09T06:04:45.565Z,70.88
2022-10-09T06:07:14.127Z,70.49
2022-10-09T06:09:42.376Z,69.91
2022-10-09T06:12:10.568Z,69.42
2022-10-09T06:14:39.086Z,68.69
2022-10-09T06:17:07.566Z,67.80
2022-10-09T06:19:35.742Z,67.56
2022-10-09T06:22:04.225Z,66.98
2022-10-09T06:24:32.911Z,66.22
2022-10-09T06:27:01.187Z,65.16
2022-10-09T06:29:30.901Z,64.80
2022-10-09T06:31:59.485Z,64.02
2022-10-09T06:34:27.660Z,63.26
2022-10-09T06:36:56.143Z,62.41
2022-10-09T06:39:25.141Z,61.70
2022-10-09T06:41:53.619Z,61.14
2022-10-09T06:44:31.117Z,60.15
2022-10-09T06:46:59.599Z,59.27
2022-10-09T06:49:27.770Z,58.50
2022-10-09T06:51:56.356Z,57.52
2022-10-09T06:54:24.737Z,56.98
2022-10-09T06:56:54.549Z,56.28
2022-10-09T06:59:22.871Z,53.41
2022-10-09T07:01:51.254Z,52.65
2022-10-09T07:04:19.487Z,48.77
2022-10-09T07:06:48.482Z,50.76
2022-10-09T07:09:17.269Z,50.14
2022-10-09T07:11:46.464Z,49.49
2022-10-09T07:14:16.192Z,49.07
2022-10-09T07:16:45.765Z,48.50
2022-10-09T07:19:14.989Z,47.82
2022-10-09T07:21:44.694Z,44.55
2022-10-09T07:24:13.305Z,43.58
2022-10-09T07:26:43.112Z,43.49
2022-10-09T07:29:13.425Z,43.31
2022-10-09T07:31:41.804Z,42.54
2022-10-09T07:34:10.285Z,42.26
2022-10-09T07:36:38.767Z,43.39
2022-10-09T07:39:07.660Z,42.63
2022-10-09T07:41:36.041Z,41.18
2022-10-09T07:44:04.318Z,41.66
2022-10-09T07:46:34.170Z,41.80
2022-10-09T07:49:03.270Z,41.19
2022-10-09T07:51:32.430Z,40.95
2022-10-09T07:54:02.435Z,40.91
2022-10-09T07:56:31.953Z,40.43
2022-10-09T07:59:03.128Z,40.45
2022-10-09T08:01:32.263Z,39.05
2022-10-09T08:04:00.837Z,39.81
2022-10-09T08:06:29.878Z,39.74
2022-10-09T08:08:59.797Z,39.73
2022-10-09T08:11:29.215Z,39.73
2022-10-09T08:13:57.997Z,38.76
2022-10-09T08:16:27.639Z,38.59
2022-10-09T08:18:57.309Z,38.60
2022-10-09T08:21:28.162Z,38.06
2022-10-09T08:23:57.564Z,37.77
2022-10-09T08:26:26.849Z,36.99
2022-10-09T08:28:57.078Z,36.56
2022-10-09T08:31:26.442Z,36.02
2022-10-09T08:33:55.359Z,36.20
2022-10-09T08:36:24.023Z,35.68
2022-10-09T08:38:52.748Z,35.94
2022-10-09T08:41:27.482Z,35.73
2022-10-09T08:44:02.104Z,34.95
2022-10-09T08:46:34.957Z,34.89
2022-10-09T08:49:04.396Z,34.85
2022-10-09T08:51:35.539Z,34.51
2022-10-09T08:54:06.991Z,34.41
2022-10-09T08:56:35.783Z,34.55
2022-10-09T08:59:04.266Z,34.11
2022-10-09T09:01:39.957Z,33.95
2022-10-09T09:04:08.555Z,33.91
2022-10-09T09:06:36.675Z,34.11
2022-10-09T09:09:24.411Z,33.90
2022-10-09T09:11:53.200Z,33.67
2022-10-09T09:14:31.206Z,33.69
2022-10-09T09:17:02.761Z,33.47
2022-10-09T09:19:34.280Z,33.15
2022-10-09T09:22:02.912Z,33.17
2022-10-09T09:24:38.524Z,32.96
2022-10-09T09:27:16.337Z,32.66
2022-10-09T09:29:47.396Z,32.96
2022-10-09T09:32:18.324Z,32.60
2022-10-09T09:34:47.329Z,32.51
2022-10-09T09:37:16.120Z,31.44
2022-10-09T09:40:31.330Z,31.29
2022-10-09T09:42:33.463Z,30.27
2022-10-09T09:45:07.999Z,29.94
2022-10-09T09:47:40.744Z,29.63
2022-10-09T09:50:23.274Z,29.44
2022-10-09T09:52:57.563Z,28.88
2022-10-09T09:55:28.236Z,28.28
2022-10-09T09:58:04.307Z,28.91
2022-10-09T10:00:33.460Z,28.37
2022-10-09T10:03:11.400Z,28.38
2022-10-09T10:05:41.215Z,28.23
2022-10-09T10:08:16.741Z,27.75
2022-10-09T10:10:48.625Z,27.71
2022-10-09T10:13:18.957Z,27.66
2022-10-09T10:15:49.128Z,26.99
2022-10-09T10:18:18.490Z,27.25
2022-10-09T10:20:48.699Z,26.82
2022-10-09T10:23:24.662Z,27.42
2022-10-09T10:25:55.906Z,26.71
2022-10-09T10:28:27.007Z,26.35
2022-10-09T10:30:57.661Z,26.22
2022-10-09T10:33:29.083Z,25.81
2022-10-09T10:35:58.744Z,25.68
2022-10-09T10:38:31.426Z,25.54
2022-10-09T10:41:20.285Z,25.71
2022-10-09T10:43:50.776Z,25.79
2022-10-09T10:46:22.208Z,25.05
2022-10-09T10:48:52.155Z,24.94
2022-10-09T10:51:39.207Z,25.19
2022-10-09T10:54:17.491Z,24.75
2022-10-09T10:56:48.827Z,24.25
2022-10-09T10:59:17.248Z,24.78
2022-10-09T11:01:52.652Z,24.64
2022-10-09T11:04:47.186Z,24.18
2022-10-09T11:07:35.945Z,24.93
2022-10-09T11:10:16.127Z,24.01
2022-10-09T11:12:48.560Z,23.96
2022-10-09T11:15:37.869Z,23.92
2022-10-09T11:18:18.025Z,24.43
2022-10-09T11:20:49.209Z,24.58
2022-10-09T11:23:23.542Z,24.15
2022-10-09T11:25:55.024Z,24.48
2022-10-09T11:28:43.838Z,24.74
2022-10-09T11:31:17.731Z,23.67
2022-10-09T11:33:48.499Z,23.65
2022-10-09T11:36:18.754Z,24.25
2022-10-09T11:38:51.028Z,24.43
2022-10-09T11:41:20.242Z,24.04
2022-10-09T11:43:48.402Z,23.86
2022-10-09T11:46:32.836Z,24.19
2022-10-09T11:49:10.251Z,23.94
2022-10-09T11:51:41.599Z,24.08
2022-10-09T11:54:21.143Z,23.71
2022-10-09T11:56:59.966Z,23.24
2022-10-09T11:59:34.290Z,22.94
2022-10-09T12:02:21.661Z,23.11
2022-10-09T12:04:54.844Z,22.58
2022-10-09T12:07:26.983Z,21.60
2022-10-09T12:10:01.704Z,21.55
2022-10-09T12:12:30.728Z,21.59
2022-10-09T12:15:09.935Z,21.47
2022-10-09T12:17:47.837Z,21.39
2022-10-09T12:20:26.660Z,21.13
2022-10-09T12:23:24.750Z,20.82
2022-10-09T12:25:46.952Z,20.88
2022-10-09T12:28:19.289Z,20.83
2022-10-09T12:30:49.314Z,20.67
2022-10-09T12:33:23.075Z,20.20
2022-10-09T12:36:03.621Z,20.54
2022-10-09T12:38:32.846Z,19.68
2022-10-09T12:41:03.063Z,19.63
2022-10-09T12:43:32.979Z,19.25
2022-10-09T12:46:01.635Z,18.99
2022-10-09T12:48:35.782Z,18.77
2022-10-09T12:51:14.293Z,18.60
2022-10-09T12:53:47.360Z,18.09
2022-10-09T12:56:21.076Z,18.25
2022-10-09T12:58:49.580Z,17.72
2022-10-09T13:01:18.485Z,18.13
2022-10-09T13:04:13.167Z,17.94
2022-10-09T13:06:46.670Z,17.28
2022-10-09T13:09:27.132Z,17.28
2022-10-09T13:12:15.788Z,17.06
2022-10-09T13:14:47.151Z,17.19
2022-10-09T13:17:28.879Z,16.90
2022-10-09T13:19:58.525Z,16.63
2022-10-09T13:22:30.019Z,16.66
2022-10-09T13:25:00.833Z,16.57
2022-10-09T13:27:31.364Z,15.76
2022-10-09T13:30:00.703Z,15.83
2022-10-09T13:32:29.252Z,15.92
2022-10-09T13:34:58.474Z,15.75
2022-10-09T13:37:27.034Z,15.79
2022-10-09T13:39:56.856Z,15.43
2022-10-09T13:42:31.187Z,14.96
2022-10-09T13:44:59.753Z,14.91
2022-10-09T13:47:28.342Z,15.00
2022-10-09T13:49:56.620Z,14.97
2022-10-09T13:52:25.290Z,14.63
2022-10-09T13:54:53.789Z,14.38
2022-10-09T13:57:22.064Z,14.87
2022-10-09T13:59:50.710Z,14.80
2022-10-09T14:02:19.646Z,14.86
2022-10-09T14:04:47.820Z,14.62
2022-10-09T14:07:16.480Z,14.61
2022-10-09T14:09:45.095Z,14.40
2022-10-09T14:12:13.266Z,14.87
2022-10-09T14:14:41.651Z,14.77
2022-10-09T14:17:10.233Z,15.10
2022-10-09T14:19:38.409Z,15.04
2022-10-09T14:22:06.764Z,15.29
2022-10-09T14:24:35.480Z,15.45
2022-10-09T14:27:03.859Z,15.48
2022-10-09T14:29:32.339Z,15.86
2022-10-09T14:32:00.928Z,16.14
2022-10-09T14:34:29.511Z,16.54
2022-10-09T14:36:57.890Z,16.86
2022-10-09T14:39:26.477Z,17.21
2022-10-09T14:41:55.265Z,17.39
2022-10-09T14:44:23.851Z,17.84
2022-10-09T14:46:52.331Z,17.93
2022-10-09T14:49:21.839Z,18.35
2022-10-09T14:51:50.425Z,18.76
2022-10-09T14:54:18.807Z,19.75
2022-10-09T14:56:47.083Z,20.67
2022-10-09T14:59:15.772Z,21.84
2022-10-09T15:01:44.766Z,22.57
2022-10-09T15:04:15.248Z,23.53
2022-10-09T15:06:43.852Z,24.16
2022-10-09T15:09:12.343Z,24.96
2022-10-09T15:11:40.541Z,25.39
2022-10-09T15:14:09.123Z,26.05
2022-10-09T15:16:38.157Z,26.68
2022-10-09T15:19:06.719Z,27.11
2022-10-09T15:21:36.313Z,28.05
2022-10-09T15:24:05.101Z,28.53
2022-10-09T15:26:34.111Z,29.19
2022-10-09T15:29:03.400Z,30.22
2022-10-09T15:31:33.520Z,31.02
2022-10-09T15:34:02.618Z,31.49
2022-10-09T15:36:33.556Z,32.16
2022-10-09T15:39:05.975Z,32.95
2022-10-09T15:41:35.459Z,33.51
2022-10-09T15:44:04.945Z,33.90
2022-10-09T15:46:34.043Z,34.86
2022-10-09T15:49:02.728Z,34.84
2022-10-09T15:51:33.464Z,35.68
2022-10-09T15:54:01.946Z,36.22
2022-10-09T15:56:30.838Z,36.54
2022-10-09T15:58:59.322Z,37.11
2022-10-09T16:01:27.652Z,37.42
2022-10-09T16:03:57.011Z,38.09
2022-10-09T16:06:25.691Z,37.89
2022-10-09T16:08:58.368Z,38.16
2022-10-09T16:11:27.179Z,38.74
2022-10-09T16:13:56.360Z,38.80
2022-10-09T16:16:26.187Z,39.21
2022-10-09T16:18:55.070Z,39.48
2022-10-09T16:21:24.780Z,40.25
2022-10-09T16:23:58.157Z,40.48
2022-10-09T16:26:29.612Z,40.33
2022-10-09T16:28:59.748Z,40.74
2022-10-09T16:31:30.774Z,41.11
2022-10-09T16:33:59.171Z,41.22
2022-10-09T16:36:27.825Z,41.34
2022-10-09T16:38:57.571Z,41.40
2022-10-09T16:41:26.770Z,41.55
2022-10-09T16:43:56.685Z,42.00
2022-10-09T16:46:27.958Z,42.37
2022-10-09T16:48:57.441Z,42.86
2022-10-09T16:51:27.764Z,44.13
2022-10-09T16:53:57.625Z,43.97
2022-10-09T16:56:27.209Z,44.01
2022-10-09T16:58:57.122Z,44.03
2022-10-09T17:01:27.225Z,44.28
2022-10-09T17:03:56.505Z,44.72
2022-10-09T17:06:25.790Z,45.25
2022-10-09T17:08:55.335Z,44.99
2022-10-09T17:11:24.533Z,45.38
2022-10-09T17:13:58.961Z,45.69
2022-10-09T17:16:29.485Z,45.40
2022-10-09T17:18:58.481Z,45.41
2022-10-09T17:21:30.967Z,45.36
2022-10-09T17:24:04.148Z,46.28
2022-10-09T17:26:32.656Z,47.13
2022-10-09T17:29:01.627Z,47.47
2022-10-09T17:31:30.673Z,47.09
2022-10-09T17:33:59.976Z,47.27
2022-10-09T17:36:29.631Z,46.87
2022-10-09T17:38:58.815Z,47.56
2022-10-09T17:41:28.030Z,48.26
2022-10-09T17:43:56.707Z,48.35
2022-10-09T17:46:26.609Z,48.59
2022-10-09T17:48:57.104Z,48.97
2022-10-09T17:51:30.135Z,49.58
2022-10-09T17:54:01.258Z,49.62
2022-10-09T17:56:30.861Z,49.63
2022-10-09T17:59:00.431Z,49.79
2022-10-09T18:01:29.246Z,49.76
2022-10-09T18:03:57.891Z,50.82
2022-10-09T18:06:26.401Z,50.87
2022-10-09T18:08:55.687Z,51.50
2022-10-09T18:11:25.178Z,52.01
2022-10-09T18:13:54.707Z,52.70
2022-10-09T18:16:36.498Z,53.20
2022-10-09T18:19:12.605Z,54.97
2022-10-09T18:21:43.478Z,54.83
2022-10-09T18:24:12.581Z,56.37
2022-10-09T18:26:41.177Z,55.74
2022-10-09T18:29:09.964Z,56.43
2022-10-09T18:31:38.748Z,56.35
2022-10-09T18:34:07.430Z,56.28
2022-10-09T18:36:36.626Z,55.66
2022-10-09T18:39:08.283Z,56.76
2022-10-09T18:41:37.281Z,55.53
2022-10-09T18:44:07.397Z,56.05
2022-10-09T18:46:41.062Z,55.91
2022-10-09T18:49:12.121Z,55.60
2022-10-09T18:51:41.243Z,54.83
2022-10-09T18:54:13.274Z,56.05
2022-10-09T18:56:44.657Z,55.85
2022-10-09T18:59:15.323Z,56.41
2022-10-09T19:01:43.580Z,56.35
2022-10-09T19:04:12.769Z,56.00
2022-10-09T19:06:41.044Z,56.46
2022-10-09T19:09:09.219Z,56.33
2022-10-09T19:11:37.928Z,55.79
2022-10-09T19:14:06.289Z,55.65
2022-10-09T19:16:35.241Z,55.82
2022-10-09T19:19:04.785Z,55.88
2022-10-09T19:21:33.269Z,55.74
2022-10-09T19:24:04.720Z,55.20
2022-10-09T19:26:34.005Z,55.00
2022-10-09T19:29:02.608Z,54.59
2022-10-09T19:31:32.228Z,54.28
2022-10-09T19:34:01.313Z,54.33
2022-10-09T19:36:33.480Z,54.38
2022-10-09T19:39:02.074Z,54.12
2022-10-09T19:41:30.751Z,54.30
2022-10-09T19:43:59.542Z,53.88
2022-10-09T19:46:28.449Z,54.28
2022-10-09T19:48:57.735Z,54.21
2022-10-09T19:51:26.952Z,54.66
2022-10-09T19:53:56.033Z,54.93
2022-10-09T19:56:26.397Z,54.70
2022-10-09T19:58:55.864Z,54.95
2022-10-09T20:01:26.229Z,55.26
2022-10-09T20:04:01.941Z,55.25
2022-10-09T20:06:30.628Z,55.51
2022-10-09T20:08:59.110Z,55.22
2022-10-09T20:11:27.591Z,55.46
2022-10-09T20:13:56.689Z,55.57
2022-10-09T20:16:25.991Z,55.79
2022-10-09T20:18:57.396Z,56.14
2022-10-09T20:21:26.253Z,56.19
2022-10-09T20:23:55.865Z,56.13
2022-10-09T20:26:24.835Z,56.54
2022-10-09T20:28:56.350Z,56.47
2022-10-09T20:31:26.310Z,56.24
2022-10-09T20:33:55.504Z,56.97
2022-10-09T20:36:31.629Z,56.91
2022-10-09T20:39:01.583Z,57.35
2022-10-09T20:41:30.577Z,57.47
2022-10-09T20:44:00.457Z,57.45
2022-10-09T20:46:30.046Z,58.13
2022-10-09T20:48:58.378Z,57.77
2022-10-09T20:51:26.962Z,58.58
2022-10-09T20:53:56.878Z,58.44
2022-10-09T20:56:27.005Z,58.81
2022-10-09T20:58:56.199Z,58.89
2022-10-09T21:01:25.602Z,59.55
2022-10-09T21:03:55.620Z,59.10
2022-10-09T21:06:24.205Z,59.00
2022-10-09T21:08:52.894Z,58.96
2022-10-09T21:11:21.271Z,59.24
2022-10-09T21:13:50.240Z,59.57
2022-10-09T21:16:20.489Z,59.62
2022-10-09T21:18:52.865Z,59.04
2022-10-09T21:21:21.242Z,59.31
2022-10-09T21:23:53.206Z,58.88
2022-10-09T21:26:22.826Z,58.59
2022-10-09T21:28:55.411Z,58.61
2022-10-09T21:31:28.732Z,58.29
2022-10-09T21:33:58.401Z,58.45
2022-10-09T21:37:15.964Z,58.35
2022-10-09T21:39:35.167Z,58.51
2022-10-09T21:42:03.785Z,58.24
2022-10-09T21:44:31.957Z,58.46
2022-10-09T21:47:00.336Z,58.17
2022-10-09T21:49:28.922Z,58.21
2022-10-09T21:51:57.099Z,58.37
2022-10-09T21:54:25.782Z,58.35
2022-10-09T21:56:54.268Z,58.55
2022-10-09T21:59:22.835Z,58.57
2022-10-09T22:01:51.398Z,58.44
2022-10-09T22:04:19.814Z,58.38
2022-10-09T22:06:48.495Z,58.20
2022-10-09T22:09:16.882Z,58.36
2022-10-09T22:11:45.363Z,58.72
2022-10-09T22:14:13.907Z,58.80
2022-10-09T22:16:42.536Z,58.60
2022-10-09T22:19:10.810Z,58.69
2022-10-09T22:21:39.296Z,58.93
2022-10-09T22:24:08.390Z,58.96
2022-10-09T22:26:36.973Z,58.63
2022-10-09T22:29:05.355Z,59.03
2022-10-09T22:31:33.836Z,59.13
2022-10-09T22:34:02.422Z,58.73
2022-10-09T22:36:32.542Z,58.15
2022-10-09T22:39:03.379Z,57.64
2022-10-09T22:41:31.865Z,57.47
2022-10-09T22:44:01.162Z,57.02
2022-10-09T22:46:34.150Z,56.64
2022-10-09T22:49:02.838Z,56.40
2022-10-09T22:51:31.715Z,56.14
2022-10-09T22:54:00.620Z,55.98
2022-10-09T22:56:30.524Z,55.95
2022-10-09T22:58:59.254Z,55.75
2022-10-09T23:01:38.454Z,55.68
2022-10-09T23:04:08.493Z,55.64
2022-10-09T23:06:36.655Z,55.71
2022-10-09T23:09:07.051Z,55.67
2022-10-09T23:11:35.561Z,55.81
2022-10-09T23:14:03.941Z,55.65
2022-10-09T23:16:32.935Z,55.63
2022-10-09T23:19:06.442Z,55.40
2022-10-09T23:21:37.046Z,55.34
2022-10-09T23:24:06.676Z,55.31
2022-10-09T23:26:36.182Z,55.24
2022-10-09T23:29:06.815Z,55.14
2022-10-09T23:31:36.380Z,55.11
2022-10-09T23:34:05.420Z,55.06
2022-10-09T23:36:34.004Z,55.04
2022-10-09T23:39:03.628Z,54.91
2022-10-09T23:41:31.991Z,54.74
2022-10-09T23:44:00.436Z,54.83
2022-10-09T23:46:29.875Z,54.90
2022-10-09T23:48:58.051Z,54.89
2022-10-09T23:51:27.432Z,54.74
2022-10-09T23:53:56.652Z,54.91
2022-10-09T23:56:26.412Z,54.64
2022-10-09T23:58:55.564Z,54.66
